Time;durP1;ratioP1;P1;durP2;ratioP2;P2;SDS_P1;SDS_P2;PMS_P1;PMS_P2;Temp;Humidity;BMP_temperature;BMP_pressure;BME280_temperature;BME280_humidity;BME280_pressure;Samples;Min_cycle;Max_cycle;Signal;HPM_P1;HPM_P2
2023/01/14 00:01:10;;;;;;;27.20;11.00;;;7.40;99.90;;;;;;5071985;28;20482;-72
2023/01/14 00:03:38;;;;;;;23.60;9.17;;;7.40;99.90;;;;;;5070400;28;21055;-74
2023/01/14 00:06:06;;;;;;;29.30;11.50;;;7.30;99.90;;;;;;5072787;28;20464;-74
2023/01/14 00:08:34;;;;;;;28.63;12.20;;;7.30;99.90;;;;;;5073674;28;20553;-73
2023/01/14 00:11:03;;;;;;;18.60;9.73;;;7.30;99.90;;;;;;5068783;28;20529;-74
2023/01/14 00:13:32;;;;;;;21.07;8.93;;;7.30;99.90;;;;;;5074721;28;20494;-71
2023/01/14 00:15:58;;;;;;;44.93;12.20;;;7.20;99.90;;;;;;5070152;28;21109;-70
2023/01/14 00:18:42;;;;;;;18.87;8.30;;;7.20;99.90;;;;;;5069075;28;20459;-73
2023/01/14 00:21:12;;;;;;;18.20;9.43;;;7.20;99.90;;;;;;5073389;28;20485;-73
2023/01/14 00:23:40;;;;;;;25.53;9.10;;;7.10;99.90;;;;;;5062701;28;20984;-72
2023/01/14 00:26:11;;;;;;;24.50;10.30;;;7.10;99.90;;;;;;5076580;28;20450;-71
2023/01/14 00:28:37;;;;;;;24.33;10.17;;;7.00;99.90;;;;;;5066200;28;20466;-73
2023/01/14 00:31:07;;;;;;;18.77;9.97;;;7.10;99.90;;;;;;5067371;28;20967;-71
2023/01/14 00:33:34;;;;;;;27.43;9.37;;;7.00;99.90;;;;;;5069133;28;20457;-72
2023/01/14 00:36:03;;;;;;;24.33;10.30;;;6.90;99.90;;;;;;5068467;28;20492;-74
2023/01/14 00:38:30;;;;;;;17.70;8.80;;;7.00;99.90;;;;;;5068369;28;20957;-71
2023/01/14 00:41:05;;;;;;;26.70;9.70;;;7.00;99.90;;;;;;5071984;28;20510;-73
2023/01/14 00:43:32;;;;;;;19.53;9.20;;;7.00;99.90;;;;;;5075721;28;20463;-72
2023/01/14 00:46:00;;;;;;;46.77;9.80;;;6.90;99.90;;;;;;5070713;28;20490;-73
2023/01/14 00:48:27;;;;;;;31.03;9.70;;;6.90;99.90;;;;;;5066087;28;20834;-72
2023/01/14 00:50:55;;;;;;;27.50;10.00;;;6.90;99.90;;;;;;5068239;28;20494;-72
2023/01/14 00:53:23;;;;;;;24.37;9.20;;;6.90;99.90;;;;;;5065091;28;20523;-73
2023/01/14 00:55:50;;;;;;;20.73;9.43;;;6.90;99.90;;;;;;5074230;28;20751;-73
2023/01/14 00:58:16;;;;;;;27.07;10.40;;;6.90;99.90;;;;;;5072910;28;21055;-72
2023/01/14 01:00:44;;;;;;;30.90;10.50;;;6.90;99.90;;;;;;5067394;28;20503;-71
2023/01/14 01:03:12;;;;;;;17.33;9.67;;;6.90;99.90;;;;;;5075443;28;20494;-73
2023/01/14 01:05:40;;;;;;;30.83;10.27;;;6.90;99.90;;;;;;5066114;28;21086;-73
2023/01/14 01:08:10;;;;;;;24.93;10.70;;;6.80;99.90;;;;;;5074337;28;20462;-73
2023/01/14 01:10:38;;;;;;;22.40;8.60;;;6.90;99.90;;;;;;5076227;28;20799;-72
2023/01/14 01:13:06;;;;;;;34.47;11.40;;;6.90;99.90;;;;;;5064794;28;20531;-71
2023/01/14 01:15:34;;;;;;;31.63;10.37;;;6.90;99.90;;;;;;5068950;28;20467;-71
2023/01/14 01:18:01;;;;;;;28.80;9.60;;;6.90;99.90;;;;;;5064629;28;20466;-74
2023/01/14 01:20:29;;;;;;;26.53;10.93;;;7.00;99.90;;;;;;5069724;28;20473;-74
2023/01/14 01:22:56;;;;;;;23.43;11.63;;;6.90;99.90;;;;;;5067776;28;20482;-71
2023/01/14 01:25:24;;;;;;;24.73;10.50;;;6.90;99.90;;;;;;5071518;28;20806;-73
2023/01/14 01:27:54;;;;;;;24.80;9.60;;;6.90;99.90;;;;;;5068495;28;20542;-70
2023/01/14 01:30:21;;;;;;;20.77;9.67;;;6.90;99.90;;;;;;5073986;28;20761;-71
2023/01/14 01:32:48;;;;;;;24.23;9.73;;;7.00;99.90;;;;;;5070290;28;20471;-74
2023/01/14 01:35:15;;;;;;;30.67;9.80;;;7.00;99.90;;;;;;5064635;28;20775;-74
2023/01/14 01:37:41;;;;;;;22.53;9.93;;;7.00;99.90;;;;;;5062817;28;20525;-72
2023/01/14 01:40:12;;;;;;;27.87;10.77;;;6.90;99.90;;;;;;5069960;28;20497;-73
2023/01/14 01:42:54;;;;;;;24.47;9.70;;;6.90;99.90;;;;;;5067614;28;20489;-73
2023/01/14 01:45:32;;;;;;;35.33;9.40;;;6.80;99.90;;;;;;5061334;28;20617;-72
2023/01/14 01:48:05;;;;;;;26.53;9.97;;;6.80;99.90;;;;;;5069607;28;20453;-71
2023/01/14 01:50:32;;;;;;;25.97;9.10;;;6.80;99.90;;;;;;5066419;28;20548;-72
2023/01/14 01:53:00;;;;;;;17.70;8.70;;;6.80;99.90;;;;;;5072831;28;21020;-74
2023/01/14 01:55:27;;;;;;;22.23;8.00;;;6.70;99.90;;;;;;5070870;28;20595;-74
2023/01/14 01:57:56;;;;;;;18.27;9.67;;;6.80;99.90;;;;;;5075211;28;20825;-72
2023/01/14 02:00:25;;;;;;;24.20;9.20;;;6.80;99.90;;;;;;5072061;28;20473;-74
2023/01/14 02:03:00;;;;;;;19.30;9.10;;;6.70;99.90;;;;;;5064011;28;20463;-74
2023/01/14 02:05:27;;;;;;;25.70;10.50;;;6.70;99.90;;;;;;5065323;28;20952;-73
2023/01/14 02:07:54;;;;;;;23.37;10.10;;;6.70;99.90;;;;;;5072414;28;20463;-72
2023/01/14 02:10:23;;;;;;;28.03;8.87;;;6.70;99.90;;;;;;5076767;28;21017;-74
2023/01/14 02:13:10;;;;;;;25.40;8.80;;;6.80;99.90;;;;;;5076422;28;20462;-70
2023/01/14 02:15:50;;;;;;;31.40;9.63;;;6.90;99.90;;;;;;5062723;28;20468;-74
2023/01/14 02:18:34;;;;;;;15.70;9.60;;;7.00;99.90;;;;;;5069854;28;20557;-74
2023/01/14 02:21:11;;;;;;;24.17;9.60;;;7.00;99.90;;;;;;5072676;28;20866;-71
2023/01/14 02:24:25;;;;;;;24.73;10.20;;;7.00;99.90;;;;;;5070396;28;20453;-72
2023/01/14 02:27:25;;;;;;;14.27;9.27;;;7.10;99.90;;;;;;5055243;28;20543;-70
2023/01/14 02:30:25;;;;;;;26.27;9.40;;;7.00;99.90;;;;;;5069174;28;20468;-70
2023/01/14 02:32:58;;;;;;;29.83;10.60;;;7.10;99.90;;;;;;5053738;28;21030;-70
2023/01/14 02:35:32;;;;;;;18.53;10.67;;;7.10;99.90;;;;;;5054057;28;20471;-74
2023/01/14 02:38:12;;;;;;;26.63;9.20;;;7.20;99.90;;;;;;5065999;28;20478;-72
2023/01/14 02:40:43;;;;;;;20.17;9.43;;;7.20;99.90;;;;;;5067818;28;20497;-72
2023/01/14 02:46:03;;;;;;;17.30;9.07;;;7.00;99.90;;;;;;5065269;28;20846;-73
2023/01/14 02:48:33;;;;;;;21.90;9.93;;;7.00;99.90;;;;;;5064575;28;20471;-74
2023/01/14 02:51:01;;;;;;;28.77;9.03;;;7.00;99.90;;;;;;5067983;28;20458;-71
2023/01/14 02:53:28;;;;;;;17.67;9.90;;;6.90;99.90;;;;;;5062246;28;20485;-71
2023/01/14 02:55:56;;;;;;;21.17;10.10;;;6.90;99.90;;;;;;5070915;28;20472;-74
2023/01/14 02:58:39;;;;;;;19.80;9.43;;;6.80;99.90;;;;;;5072203;28;20862;-74
2023/01/14 03:01:31;;;;;;;22.27;9.17;;;6.80;99.90;;;;;;5078696;28;20838;-73
2023/01/14 03:04:10;;;;;;;21.07;9.40;;;6.70;99.90;;;;;;5077495;28;20475;-74
2023/01/14 03:06:52;;;;;;;32.50;8.50;;;6.60;99.90;;;;;;5066597;28;20832;-74
2023/01/14 03:09:32;;;;;;;27.70;10.43;;;6.60;99.90;;;;;;5071349;28;20803;-71
2023/01/14 03:12:08;;;;;;;19.33;9.27;;;6.60;99.90;;;;;;5075530;28;20462;-72
2023/01/14 03:14:43;;;;;;;17.63;8.83;;;6.60;99.90;;;;;;5067970;28;20973;-73
2023/01/14 03:17:18;;;;;;;27.20;9.20;;;6.60;99.90;;;;;;5070767;28;20462;-73
2023/01/14 03:19:48;;;;;;;18.80;9.63;;;6.60;99.90;;;;;;5065820;28;20458;-74
2023/01/14 03:22:15;;;;;;;19.27;8.87;;;6.50;99.90;;;;;;5069147;28;20498;-74
2023/01/14 03:24:45;;;;;;;19.23;8.90;;;6.50;99.90;;;;;;5072979;28;20547;-73
2023/01/14 03:27:18;;;;;;;20.07;9.70;;;6.50;99.90;;;;;;5067709;28;20473;-72
2023/01/14 03:29:50;;;;;;;28.90;9.20;;;6.50;99.90;;;;;;5072607;28;21197;-71
2023/01/14 03:32:21;;;;;;;27.43;8.60;;;6.50;99.90;;;;;;5073841;28;21484;-72
2023/01/14 03:34:55;;;;;;;32.43;8.60;;;6.50;99.90;;;;;;5072023;28;21625;-71
2023/01/14 03:37:24;;;;;;;20.50;9.53;;;6.40;99.90;;;;;;5068437;28;20478;-73
2023/01/14 03:39:55;;;;;;;18.53;8.50;;;6.40;99.90;;;;;;5072511;28;20485;-72
2023/01/14 03:42:24;;;;;;;23.47;8.60;;;6.40;99.90;;;;;;5072195;28;20551;-74
2023/01/14 03:45:02;;;;;;;28.20;8.70;;;6.40;99.90;;;;;;5072942;28;20983;-74
2023/01/14 03:47:34;;;;;;;21.13;9.07;;;6.40;99.90;;;;;;5071527;28;20988;-75
2023/01/14 03:50:03;;;;;;;18.83;9.10;;;6.40;99.90;;;;;;5073691;28;20450;-74
2023/01/14 03:52:48;;;;;;;21.77;10.10;;;6.40;99.90;;;;;;5069615;28;20801;-73
2023/01/14 03:55:21;;;;;;;22.77;9.47;;;6.40;99.90;;;;;;5072906;28;20454;-73
2023/01/14 03:57:54;;;;;;;18.70;8.90;;;6.50;99.90;;;;;;5071295;28;20495;-73
2023/01/14 04:00:27;;;;;;;23.90;9.30;;;6.50;99.90;;;;;;5069471;28;20552;-71
2023/01/14 04:02:58;;;;;;;31.17;9.93;;;6.50;99.90;;;;;;5064372;28;20494;-71
2023/01/14 04:05:26;;;;;;;21.00;11.00;;;6.50;99.90;;;;;;5070854;28;20819;-73
2023/01/14 04:07:55;;;;;;;23.83;8.87;;;6.60;99.90;;;;;;5071962;28;20513;-73
2023/01/14 04:10:22;;;;;;;18.73;8.23;;;6.60;99.90;;;;;;5074598;28;20776;-72
2023/01/14 04:15:42;;;;;;;16.50;8.60;;;6.70;99.90;;;;;;5035700;28;20512;-75
2023/01/14 04:18:10;;;;;;;10.50;7.43;;;6.70;99.90;;;;;;5071563;28;20467;-71
2023/01/14 04:20:37;;;;;;;18.13;7.83;;;6.80;99.90;;;;;;5071809;28;21021;-72
2023/01/14 04:23:05;;;;;;;19.70;10.00;;;6.80;99.90;;;;;;5073459;28;20538;-71
2023/01/14 04:25:32;;;;;;;16.73;9.60;;;6.80;99.90;;;;;;5069993;28;20464;-72
2023/01/14 04:27:59;;;;;;;14.13;8.57;;;6.80;99.90;;;;;;5071406;28;20460;-75
2023/01/14 04:30:27;;;;;;;24.63;9.33;;;6.90;99.90;;;;;;5068757;28;22409;-71
2023/01/14 04:32:54;;;;;;;13.90;8.60;;;6.80;99.90;;;;;;5074081;28;20480;-70
2023/01/14 04:35:22;;;;;;;15.97;9.37;;;6.90;99.90;;;;;;5073614;28;20627;-71
2023/01/14 04:37:50;;;;;;;25.90;8.87;;;6.90;99.90;;;;;;5069390;28;20579;-73
2023/01/14 04:40:17;;;;;;;28.73;8.43;;;6.80;99.90;;;;;;5071961;28;20598;-75
2023/01/14 04:42:43;;;;;;;21.23;8.77;;;6.80;99.90;;;;;;5070187;28;20894;-73
2023/01/14 04:45:11;;;;;;;21.97;8.40;;;6.70;99.90;;;;;;5069292;28;20572;-73
2023/01/14 04:47:39;;;;;;;19.53;9.03;;;6.80;99.90;;;;;;5070832;28;20459;-72
2023/01/14 04:52:48;;;;;;;14.10;8.47;;;6.80;99.90;;;;;;5065865;28;20467;-73
2023/01/14 04:55:15;;;;;;;17.80;9.40;;;6.70;99.90;;;;;;5076186;28;20466;-73
2023/01/14 04:57:43;;;;;;;13.77;8.80;;;6.70;99.90;;;;;;5069128;28;21001;-73
2023/01/14 05:00:11;;;;;;;21.90;8.40;;;6.70;99.90;;;;;;5070886;28;20842;-74
2023/01/14 05:02:38;;;;;;;14.30;8.47;;;6.70;99.90;;;;;;5067794;28;20492;-72
2023/01/14 05:05:05;;;;;;;13.20;8.00;;;6.70;99.90;;;;;;5068967;28;20458;-71
2023/01/14 05:07:32;;;;;;;18.37;9.10;;;6.70;99.90;;;;;;5073386;28;20482;-75
2023/01/14 05:10:00;;;;;;;18.07;8.80;;;6.60;99.90;;;;;;5068435;28;20527;-74
2023/01/14 05:12:27;;;;;;;20.67;8.30;;;6.60;99.90;;;;;;5065793;28;20481;-74
2023/01/14 05:14:54;;;;;;;19.33;8.77;;;6.60;99.90;;;;;;5072515;28;20620;-72
2023/01/14 05:17:21;;;;;;;16.40;9.30;;;6.50;99.90;;;;;;5064479;28;20468;-72
2023/01/14 05:19:48;;;;;;;21.73;9.47;;;6.50;99.90;;;;;;5068736;28;20469;-73
2023/01/14 05:22:15;;;;;;;31.50;10.13;;;6.60;99.90;;;;;;5072839;28;20853;-72
2023/01/14 05:24:42;;;;;;;21.83;11.10;;;6.60;99.90;;;;;;5067016;28;20520;-73
2023/01/14 05:27:10;;;;;;;17.23;9.20;;;6.60;99.90;;;;;;5066529;28;20476;-72
2023/01/14 05:29:38;;;;;;;19.10;8.40;;;6.60;99.90;;;;;;5069384;28;20463;-70
2023/01/14 05:32:05;;;;;;;23.90;9.60;;;6.60;99.90;;;;;;5067782;28;21129;-71
2023/01/14 05:34:32;;;;;;;14.33;9.40;;;6.50;99.90;;;;;;5069618;28;20459;-73
2023/01/14 05:36:59;;;;;;;15.30;8.93;;;6.50;99.90;;;;;;5074891;28;20466;-74
2023/01/14 05:39:26;;;;;;;16.93;9.77;;;6.50;99.90;;;;;;5067129;28;20503;-73
2023/01/14 05:47:23;;;;;;;23.03;9.30;;;6.60;99.90;;;;;;5059279;28;20849;-70
2023/01/14 05:49:50;;;;;;;14.40;9.70;;;6.60;99.90;;;;;;5065870;28;20465;-72
2023/01/14 05:52:17;;;;;;;13.63;9.27;;;6.70;99.90;;;;;;5064665;28;20829;-73
2023/01/14 05:54:44;;;;;;;19.07;9.63;;;6.70;99.90;;;;;;5066975;28;20895;-73
2023/01/14 05:57:14;;;;;;;18.73;9.60;;;6.60;99.90;;;;;;5069465;28;20471;-75
2023/01/14 05:59:43;;;;;;;19.30;10.17;;;6.70;99.90;;;;;;5065020;28;20943;-74
2023/01/14 06:07:41;;;;;;;25.87;10.43;;;6.70;99.90;;;;;;5073403;28;20458;-70
2023/01/14 06:10:08;;;;;;;16.33;10.63;;;6.70;99.90;;;;;;5074576;28;20458;-70
2023/01/14 06:12:57;;;;;;;11.97;9.40;;;6.70;99.90;;;;;;5070568;28;20831;-69
2023/01/14 06:15:25;;;;;;;13.63;9.90;;;6.70;99.90;;;;;;5063088;28;20826;-69
2023/01/14 06:17:58;;;;;;;22.43;10.90;;;6.70;99.90;;;;;;5075743;28;20489;-72
2023/01/14 06:20:24;;;;;;;15.07;9.93;;;6.80;99.90;;;;;;5064538;28;20467;-72
2023/01/14 06:22:55;;;;;;;14.80;9.83;;;6.90;99.90;;;;;;5071895;28;20483;-69
2023/01/14 06:25:22;;;;;;;20.10;10.60;;;6.90;99.90;;;;;;5066958;28;20551;-72
2023/01/14 06:27:48;;;;;;;19.13;13.20;;;6.90;99.90;;;;;;5065850;28;20506;-72
2023/01/14 06:30:16;;;;;;;17.90;15.50;;;6.90;99.90;;;;;;5069124;28;20830;-70
2023/01/14 06:32:45;;;;;;;23.30;17.20;;;7.00;99.90;;;;;;5068243;28;21090;-68
2023/01/14 06:35:11;;;;;;;21.23;19.00;;;6.90;99.90;;;;;;5069136;28;20788;-71
2023/01/14 06:37:38;;;;;;;21.60;19.40;;;6.80;99.90;;;;;;5073307;28;20469;-69
2023/01/14 06:40:06;;;;;;;24.20;20.10;;;6.80;99.90;;;;;;5070400;28;20482;-69
2023/01/14 06:42:33;;;;;;;28.90;19.10;;;6.80;99.90;;;;;;5073863;28;20484;-71
2023/01/14 06:45:01;;;;;;;22.83;20.43;;;6.80;99.90;;;;;;5075945;28;20490;-70
2023/01/14 06:47:28;;;;;;;20.20;18.70;;;6.80;99.90;;;;;;5074075;28;20540;-70
2023/01/14 06:49:56;;;;;;;22.70;19.30;;;6.70;99.90;;;;;;5078343;28;20454;-69
2023/01/14 06:52:23;;;;;;;21.80;19.70;;;6.70;99.90;;;;;;5076626;28;20462;-70
2023/01/14 06:54:51;;;;;;;24.97;18.60;;;6.70;99.90;;;;;;5075487;28;20482;-68
2023/01/14 06:57:18;;;;;;;21.10;18.83;;;6.80;99.90;;;;;;5077389;28;20454;-71
2023/01/14 06:59:45;;;;;;;22.13;19.00;;;6.80;99.90;;;;;;5070921;28;20509;-71
2023/01/14 07:02:13;;;;;;;21.97;20.03;;;6.80;99.90;;;;;;5070891;28;20968;-70
2023/01/14 07:04:42;;;;;;;22.27;20.40;;;6.80;99.90;;;;;;5078783;28;20557;-69
2023/01/14 07:07:11;;;;;;;25.33;22.70;;;6.80;99.90;;;;;;5075003;28;20473;-67
2023/01/14 07:09:38;;;;;;;25.60;21.90;;;6.80;99.90;;;;;;5067857;28;20872;-69
2023/01/14 07:12:06;;;;;;;27.63;22.37;;;6.70;99.90;;;;;;5071405;28;20473;-69
2023/01/14 07:14:33;;;;;;;25.60;22.93;;;6.70;99.90;;;;;;5070200;28;20485;-68
2023/01/14 07:17:01;;;;;;;25.80;22.00;;;6.60;99.90;;;;;;5075771;28;20822;-69
2023/01/14 07:19:28;;;;;;;24.73;22.13;;;6.60;99.90;;;;;;5080027;28;20504;-70
2023/01/14 07:21:55;;;;;;;28.00;20.93;;;6.60;99.90;;;;;;5072012;28;20471;-70
2023/01/14 07:24:23;;;;;;;24.47;21.80;;;6.60;99.90;;;;;;5072003;28;20485;-69
2023/01/14 07:26:50;;;;;;;34.17;20.43;;;6.60;99.90;;;;;;5066055;28;20574;-70
2023/01/14 07:29:17;;;;;;;24.57;21.23;;;6.60;99.90;;;;;;5073715;28;20459;-70
2023/01/14 07:31:44;;;;;;;21.00;19.03;;;6.60;99.90;;;;;;5080131;28;20466;-71
2023/01/14 07:34:11;;;;;;;27.07;19.93;;;6.50;99.90;;;;;;5073821;28;20468;-71
2023/01/14 07:36:37;;;;;;;21.30;19.00;;;6.50;99.90;;;;;;5072304;28;20460;-70
2023/01/14 07:39:05;;;;;;;26.10;19.70;;;6.60;99.90;;;;;;5072216;28;20466;-71
2023/01/14 07:41:33;;;;;;;27.17;19.20;;;6.60;99.90;;;;;;5063765;28;21323;-73
2023/01/14 07:44:00;;;;;;;22.03;19.73;;;6.70;99.90;;;;;;5068939;28;20528;-72
2023/01/14 07:46:27;;;;;;;24.73;18.50;;;6.70;99.90;;;;;;5071372;28;20493;-72
2023/01/14 07:48:54;;;;;;;20.03;18.47;;;6.70;99.90;;;;;;5067241;28;20910;-71
2023/01/14 07:51:23;;;;;;;19.67;17.97;;;6.70;99.90;;;;;;5070149;28;20460;-72
2023/01/14 07:53:50;;;;;;;20.57;18.40;;;6.80;99.90;;;;;;5067323;28;20822;-73
2023/01/14 07:56:17;;;;;;;25.07;16.67;;;6.80;99.90;;;;;;5065175;28;20702;-72
2023/01/14 07:58:48;;;;;;;18.70;17.10;;;7.00;99.90;;;;;;5068473;28;20466;-72
2023/01/14 08:01:14;;;;;;;17.00;15.60;;;7.10;99.90;;;;;;5075037;28;20545;-72
2023/01/14 08:03:41;;;;;;;15.53;14.30;;;7.20;99.90;;;;;;5068933;28;20498;-71
2023/01/14 08:06:08;;;;;;;15.73;14.53;;;7.30;99.90;;;;;;5070405;28;20461;-72
2023/01/14 08:08:35;;;;;;;15.70;14.70;;;7.30;99.90;;;;;;5070428;28;20472;-71
2023/01/14 08:11:02;;;;;;;15.90;14.90;;;7.40;99.90;;;;;;5078827;28;20457;-70
2023/01/14 08:13:30;;;;;;;14.80;14.00;;;7.40;99.90;;;;;;5070881;28;20521;-70
2023/01/14 08:16:00;;;;;;;14.10;13.10;;;7.50;99.90;;;;;;5067285;28;22507;-72
2023/01/14 08:18:29;;;;;;;14.83;13.13;;;7.50;99.90;;;;;;5072879;28;20478;-72
2023/01/14 08:20:59;;;;;;;14.30;13.30;;;7.50;99.90;;;;;;5063398;28;20550;-70
2023/01/14 08:23:26;;;;;;;14.27;13.30;;;7.50;99.90;;;;;;5066857;28;20497;-70
2023/01/14 08:25:53;;;;;;;14.47;13.40;;;7.60;99.90;;;;;;5063954;28;20463;-71
2023/01/14 08:28:20;;;;;;;13.93;13.20;;;7.60;99.90;;;;;;5070859;28;20487;-70
2023/01/14 08:30:46;;;;;;;13.60;13.00;;;7.70;99.90;;;;;;5070257;28;20469;-72
2023/01/14 08:33:15;;;;;;;13.93;13.27;;;7.70;99.90;;;;;;5069460;28;20560;-72
2023/01/14 08:35:42;;;;;;;13.80;13.10;;;7.70;99.90;;;;;;5059729;28;20992;-70
2023/01/14 08:38:09;;;;;;;14.17;13.07;;;7.80;99.90;;;;;;5062264;28;20796;-71
2023/01/14 08:40:36;;;;;;;13.87;13.17;;;7.80;99.90;;;;;;5061091;28;20555;-71
2023/01/14 08:43:03;;;;;;;14.03;13.20;;;7.80;99.90;;;;;;5060756;28;20855;-72
2023/01/14 08:45:30;;;;;;;12.63;12.03;;;7.90;99.90;;;;;;5061427;28;20569;-71
2023/01/14 08:47:58;;;;;;;13.13;12.17;;;7.90;99.90;;;;;;5060510;28;20464;-72
2023/01/14 08:50:26;;;;;;;12.30;11.60;;;7.90;99.90;;;;;;5061639;28;20470;-72
2023/01/14 08:52:53;;;;;;;11.80;11.10;;;7.90;99.90;;;;;;5059126;28;20821;-71
2023/01/14 08:55:20;;;;;;;13.60;12.40;;;8.00;99.90;;;;;;5068501;28;21075;-70
2023/01/14 08:57:47;;;;;;;12.03;11.13;;;8.00;99.90;;;;;;5070963;28;20457;-70
2023/01/14 09:00:14;;;;;;;11.40;10.80;;;8.10;99.90;;;;;;5061792;28;20500;-71
2023/01/14 09:02:44;;;;;;;11.17;10.10;;;8.10;99.90;;;;;;5061867;28;20465;-70
2023/01/14 09:05:10;;;;;;;11.77;10.97;;;8.10;99.90;;;;;;5060760;28;20457;-71
2023/01/14 09:18:41;;;;;;;10.47;9.60;;;8.40;99.90;;;;;;5071116;28;20472;-71
2023/01/14 09:21:08;;;;;;;10.53;9.67;;;8.40;99.90;;;;;;5070690;28;20466;-71
2023/01/14 09:23:37;;;;;;;10.60;9.73;;;8.40;99.90;;;;;;5060602;28;20488;-73
2023/01/14 09:26:04;;;;;;;10.70;9.90;;;8.50;99.90;;;;;;5059397;28;20475;-73
2023/01/14 09:28:31;;;;;;;10.97;10.07;;;8.60;99.90;;;;;;5060233;28;20459;-73
2023/01/14 09:30:58;;;;;;;10.80;10.30;;;8.60;99.90;;;;;;5058698;28;21202;-71
2023/01/14 09:33:24;;;;;;;12.33;11.40;;;8.60;99.90;;;;;;5064411;28;20463;-70
2023/01/14 09:35:52;;;;;;;11.33;10.43;;;8.70;99.90;;;;;;5060294;28;20458;-71
2023/01/14 09:38:18;;;;;;;10.90;10.30;;;8.80;99.90;;;;;;5060060;28;20467;-73
2023/01/14 09:40:47;;;;;;;11.73;10.77;;;8.80;99.90;;;;;;5058519;28;20498;-73
2023/01/14 09:43:19;;;;;;;12.60;11.67;;;8.90;99.90;;;;;;5060597;28;21043;-72
2023/01/14 09:45:48;;;;;;;11.83;11.07;;;8.90;99.90;;;;;;5067127;28;20481;-69
2023/01/14 09:48:17;;;;;;;13.43;10.80;;;8.90;99.90;;;;;;5064862;28;20473;-72
2023/01/14 09:50:57;;;;;;;11.87;11.27;;;8.90;99.90;;;;;;5062246;28;20463;-69
2023/01/14 09:53:38;;;;;;;13.67;12.83;;;9.00;99.90;;;;;;5063263;28;20476;-72
2023/01/14 09:56:14;;;;;;;13.97;12.77;;;9.00;99.90;;;;;;5061593;28;20560;-71
2023/01/14 09:58:52;;;;;;;17.07;15.60;;;8.90;99.90;;;;;;5066598;28;20469;-70
2023/01/14 10:01:27;;;;;;;17.97;16.63;;;8.90;99.90;;;;;;5064235;28;20458;-70
2023/01/14 10:04:02;;;;;;;19.57;18.07;;;9.00;99.90;;;;;;5065255;28;21359;-70
2023/01/14 10:06:30;;;;;;;19.80;18.30;;;8.90;99.90;;;;;;5070497;28;20469;-70
2023/01/14 10:09:03;;;;;;;20.63;18.17;;;8.90;99.90;;;;;;5065634;28;20469;-71
2023/01/14 10:11:35;;;;;;;18.30;17.00;;;8.90;99.90;;;;;;5063838;28;20900;-71
2023/01/14 10:14:07;;;;;;;18.20;17.00;;;8.90;99.90;;;;;;5067154;28;20998;-71
2023/01/14 10:16:38;;;;;;;18.73;17.10;;;8.90;99.90;;;;;;5057657;28;20454;-69
2023/01/14 10:19:11;;;;;;;17.20;16.10;;;8.90;99.90;;;;;;5074845;28;21525;-72
2023/01/14 10:21:44;;;;;;;18.50;16.93;;;8.90;99.90;;;;;;5065476;28;20520;-71
2023/01/14 10:24:13;;;;;;;16.73;15.43;;;8.90;99.90;;;;;;5073395;28;20478;-70
2023/01/14 10:26:44;;;;;;;17.40;16.00;;;8.90;99.90;;;;;;5068595;28;20482;-70
2023/01/14 10:29:15;;;;;;;15.17;14.00;;;8.90;99.90;;;;;;5070542;28;20498;-71
2023/01/14 10:31:43;;;;;;;16.03;15.13;;;8.90;99.90;;;;;;5069115;28;20486;-71
2023/01/14 10:34:12;;;;;;;15.07;14.17;;;8.90;99.90;;;;;;5068314;28;20474;-72
2023/01/14 10:36:39;;;;;;;21.73;13.60;;;8.80;99.90;;;;;;5059732;28;20523;-71
2023/01/14 10:39:07;;;;;;;13.53;12.27;;;8.90;99.90;;;;;;5068375;28;20513;-71
2023/01/14 10:41:49;;;;;;;13.33;12.33;;;8.90;99.90;;;;;;5063654;28;20568;-71
2023/01/14 10:44:23;;;;;;;13.33;12.20;;;8.90;99.90;;;;;;5064149;28;20494;-71
2023/01/14 10:46:52;;;;;;;12.73;11.73;;;8.90;99.90;;;;;;5064671;28;20735;-71
2023/01/14 10:49:22;;;;;;;12.90;11.80;;;9.00;99.90;;;;;;5061549;28;20469;-71
2023/01/14 10:51:50;;;;;;;12.60;11.57;;;9.00;99.90;;;;;;5065400;28;20522;-70
2023/01/14 10:54:19;;;;;;;17.40;12.43;;;9.00;99.90;;;;;;5062238;28;20470;-71
2023/01/14 10:56:50;;;;;;;11.90;10.80;;;9.00;99.90;;;;;;5069821;28;20483;-70
2023/01/14 10:59:34;;;;;;;11.23;10.43;;;9.10;99.90;;;;;;5065249;28;20835;-70
2023/01/14 11:02:05;;;;;;;10.00;9.20;;;9.10;99.90;;;;;;5067947;28;20462;-71
2023/01/14 11:04:35;;;;;;;11.20;10.50;;;9.10;99.90;;;;;;5069834;28;20490;-71
2023/01/14 11:07:09;;;;;;;9.80;9.17;;;9.10;99.90;;;;;;5063598;28;20455;-71
2023/01/14 11:09:37;;;;;;;11.17;10.37;;;9.10;99.90;;;;;;5061242;28;20960;-71
2023/01/14 11:12:04;;;;;;;10.30;9.70;;;9.10;99.90;;;;;;5070416;28;20956;-71
2023/01/14 11:14:39;;;;;;;9.23;8.83;;;9.10;99.90;;;;;;5060945;28;20458;-70
2023/01/14 11:17:22;;;;;;;8.83;8.43;;;9.10;99.90;;;;;;5063002;28;20959;-71
2023/01/14 11:19:49;;;;;;;7.97;7.57;;;9.10;99.90;;;;;;5063385;28;20656;-71
2023/01/14 11:22:16;;;;;;;9.10;8.70;;;9.10;99.90;;;;;;5066676;28;20841;-71
2023/01/14 11:24:48;;;;;;;9.73;9.00;;;9.10;99.90;;;;;;5068253;28;21015;-73
2023/01/14 11:27:17;;;;;;;9.40;8.80;;;9.20;99.90;;;;;;5071406;28;20957;-71
2023/01/14 11:29:47;;;;;;;9.37;8.70;;;9.20;99.90;;;;;;5072727;28;20455;-72
2023/01/14 11:32:19;;;;;;;8.93;8.40;;;9.20;99.90;;;;;;5065043;28;21286;-72
2023/01/14 11:34:50;;;;;;;9.17;8.77;;;9.20;99.90;;;;;;5058726;28;20542;-71
2023/01/14 11:37:20;;;;;;;9.47;8.97;;;9.20;99.90;;;;;;5060851;28;21325;-72
2023/01/14 11:39:49;;;;;;;8.93;8.23;;;9.20;99.90;;;;;;5063230;28;20489;-72
2023/01/14 11:42:31;;;;;;;9.27;8.67;;;9.20;99.90;;;;;;5066120;28;20511;-71
2023/01/14 11:45:01;;;;;;;8.40;8.00;;;9.20;99.90;;;;;;5067008;28;20583;-70
2023/01/14 11:47:30;;;;;;;10.40;7.70;;;9.20;99.90;;;;;;5068569;28;20477;-71
2023/01/14 11:50:15;;;;;;;8.23;7.83;;;9.20;99.90;;;;;;5073063;28;20496;-70
2023/01/14 11:52:54;;;;;;;7.90;7.50;;;9.20;99.90;;;;;;5065207;28;20460;-72
2023/01/14 11:55:21;;;;;;;9.13;8.47;;;9.20;99.90;;;;;;5070493;28;20470;-72
2023/01/14 11:57:48;;;;;;;9.20;8.30;;;9.30;99.90;;;;;;5067701;28;20716;-71
2023/01/14 12:00:17;;;;;;;8.07;7.77;;;9.30;99.90;;;;;;5067435;28;20536;-73
2023/01/14 12:02:47;;;;;;;8.10;7.70;;;9.30;99.90;;;;;;5079064;28;20471;-72
2023/01/14 12:05:17;;;;;;;8.23;7.73;;;9.30;99.90;;;;;;5067016;28;20890;-72
2023/01/14 12:07:47;;;;;;;8.30;7.90;;;9.30;99.90;;;;;;5067699;28;20466;-72
2023/01/14 12:10:20;;;;;;;9.20;8.40;;;9.40;99.90;;;;;;5063616;28;20459;-72
2023/01/14 12:18:32;;;;;;;8.10;7.73;;;9.40;99.90;;;;;;5067440;28;20472;-70
2023/01/14 12:21:01;;;;;;;8.60;8.13;;;9.40;99.90;;;;;;5064771;28;20467;-71
2023/01/14 12:23:30;;;;;;;8.20;7.80;;;9.40;99.90;;;;;;5067122;28;20477;-70
2023/01/14 12:26:02;;;;;;;9.50;9.00;;;9.50;99.90;;;;;;5067463;28;21172;-71
2023/01/14 12:28:32;;;;;;;8.57;8.27;;;9.40;99.90;;;;;;5065214;28;20458;-72
2023/01/14 12:31:03;;;;;;;8.97;8.57;;;9.50;99.90;;;;;;5065770;28;20960;-70
2023/01/14 12:33:38;;;;;;;8.60;8.20;;;9.50;99.90;;;;;;5065271;28;20460;-71
2023/01/14 12:36:14;;;;;;;8.70;8.20;;;9.50;99.90;;;;;;5074120;28;20527;-71
2023/01/14 12:47:20;;;;;;;9.90;9.50;;;9.60;99.90;;;;;;5030572;28;20449;-72
2023/01/14 12:49:47;;;;;;;10.10;9.67;;;9.60;99.90;;;;;;5067355;28;20481;-72
2023/01/14 12:52:26;;;;;;;8.90;8.50;;;9.60;99.90;;;;;;5062889;28;20515;-72
2023/01/14 12:54:55;;;;;;;8.83;8.50;;;9.60;99.90;;;;;;5070191;28;20465;-71
2023/01/14 12:57:25;;;;;;;8.40;8.10;;;9.60;99.90;;;;;;5066278;28;20466;-71
2023/01/14 12:59:55;;;;;;;8.40;8.10;;;9.60;99.90;;;;;;5062082;28;20475;-72
2023/01/14 13:02:32;;;;;;;8.40;7.90;;;9.70;99.90;;;;;;5063372;28;20561;-72
2023/01/14 13:05:03;;;;;;;8.63;8.20;;;9.70;99.90;;;;;;5066105;28;20471;-72
2023/01/14 13:07:32;;;;;;;8.30;8.00;;;9.70;99.90;;;;;;5070447;28;20472;-71
2023/01/14 13:10:02;;;;;;;8.30;7.90;;;9.70;99.90;;;;;;5065316;28;20451;-72
2023/01/14 13:12:33;;;;;;;7.80;7.40;;;9.70;99.90;;;;;;5067570;28;20470;-71
2023/01/14 13:15:03;;;;;;;7.97;7.67;;;9.80;99.90;;;;;;5069075;28;20494;-72
2023/01/14 13:17:36;;;;;;;8.27;7.97;;;9.80;99.90;;;;;;5063167;28;20937;-72
2023/01/14 13:20:06;;;;;;;8.03;7.63;;;9.80;99.90;;;;;;5067270;28;20471;-72
2023/01/14 13:22:43;;;;;;;8.27;7.73;;;9.90;99.90;;;;;;5066622;28;20463;-71
2023/01/14 13:25:42;;;;;;;8.67;8.30;;;9.90;99.90;;;;;;5068854;28;20880;-70
2023/01/14 13:28:31;;;;;;;8.70;8.30;;;9.90;99.90;;;;;;5067924;28;20462;-70
2023/01/14 13:31:23;;;;;;;8.80;8.20;;;10.00;99.90;;;;;;5067113;28;20493;-71
2023/01/14 13:34:25;;;;;;;8.67;8.17;;;10.00;99.90;;;;;;5069118;28;20572;-71
2023/01/14 13:37:20;;;;;;;8.60;8.20;;;10.00;99.90;;;;;;5064325;28;20459;-70
2023/01/14 13:39:57;;;;;;;8.33;7.93;;;10.10;99.90;;;;;;5066796;28;20486;-71
2023/01/14 13:42:31;;;;;;;9.07;8.67;;;10.10;99.90;;;;;;5058628;28;20471;-72
2023/01/14 13:44:59;;;;;;;8.63;8.23;;;10.10;99.90;;;;;;5064211;28;20498;-72